< < Back
Terminal Aerodrome Forecast


Current Version              Previous Versions:   1  2  3  4  5  6  7  8  9  

Terminal Aerodrome Forecast

629
FTUS42 KJAX 012320
TAFGNV
TAF
KGNV 012320Z 0200/0224 24010KT P6SM SCT060 SCT250
     FM020200 23004KT P6SM SCT150
     FM021400 25008KT P6SM SCT030 SCT250
     FM021800 24010KT P6SM VCTS BKN040CB=

Latest METAR

554
SAUS70 KWBC 012256
MTRGNV
METAR KGNV 012253Z 24008KT 10SM CLR 31/20 A3005 RMK AO2 SLP172
T03110200


USA.gov is the U.S. government's official web portal to all federal, state and local government web resources and services.